Time;durP1;ratioP1;P1;durP2;ratioP2;P2;SDS_P1;SDS_P2;PMS_P1;PMS_P2;Temp;Humidity;BMP_temperature;BMP_pressure;BME280_temperature;BME280_humidity;BME280_pressure;Samples;Min_cycle;Max_cycle;Signal;HPM_P1;HPM_P2
2023/04/08 00:00:28;;;;;;;;;;;;;;;6.06;100.00;100608.47;5037833;28;20425;-82
2023/04/08 00:02:54;;;;;;;;;;;;;;;6.04;100.00;100599.63;5038249;28;19913;-81
2023/04/08 00:05:19;;;;;;;;;;;;;;;6.03;100.00;100600.09;5039522;28;19913;-81
2023/04/08 00:07:45;;;;;;;;;;;;;;;6.01;100.00;100602.59;5039765;28;19928;-80
2023/04/08 00:10:10;;;;;;;;;;;;;;;6.01;100.00;100614.72;5037477;28;19982;-81
2023/04/08 00:12:35;;;;;;;;;;;;;;;6.04;100.00;100613.03;5035852;28;19913;-83
2023/04/08 00:15:01;;;;;;;;;;;;;;;6.04;100.00;100610.97;5037338;28;19913;-81
2023/04/08 00:17:26;;;;;;;;;;;;;;;6.01;100.00;100616.75;5037133;28;19925;-82
2023/04/08 00:19:51;;;;;;;;;;;;;;;5.97;100.00;100611.22;5038971;28;19921;-80
2023/04/08 00:22:17;;;;;;;;;;;;;;;5.97;100.00;100613.25;5046831;28;19947;-78
2023/04/08 00:24:42;;;;;;;;;;;;;;;6.00;100.00;100604.63;5057179;28;19913;-79
2023/04/08 00:27:07;;;;;;;;;;;;;;;6.00;100.00;100604.63;5053345;28;19921;-80
2023/04/08 00:29:33;;;;;;;;;;;;;;;6.00;100.00;100615.97;5035751;28;19917;-81
2023/04/08 00:31:58;;;;;;;;;;;;;;;5.96;100.00;100614.50;5036066;28;20000;-80
2023/04/08 00:34:23;;;;;;;;;;;;;;;5.95;100.00;100610.84;5036867;28;19998;-81
2023/04/08 00:36:49;;;;;;;;;;;;;;;5.96;100.00;100612.47;5036775;28;19956;-80
2023/04/08 00:39:14;;;;;;;;;;;;;;;5.97;100.00;100616.09;5036522;28;19948;-80
2023/04/08 00:41:39;;;;;;;;;;;;;;;5.96;100.00;100617.31;5036902;28;19913;-80
2023/04/08 00:44:05;;;;;;;;;;;;;;;5.94;100.00;100612.13;5045796;28;19951;-80
2023/04/08 00:46:31;;;;;;;;;;;;;;;5.94;100.00;100619.84;5038004;28;19913;-79
2023/04/08 00:48:56;;;;;;;;;;;;;;;5.95;100.00;100621.41;5021773;28;19921;-81
2023/04/08 00:51:21;;;;;;;;;;;;;;;5.95;100.00;100627.88;5038937;28;20361;-79
2023/04/08 00:53:46;;;;;;;;;;;;;;;5.93;100.00;100621.09;5056931;28;19913;-81
2023/04/08 00:56:12;;;;;;;;;;;;;;;5.91;100.00;100627.19;5041753;28;19913;-81
2023/04/08 00:58:37;;;;;;;;;;;;;;;5.93;100.00;100626.75;5042244;28;20012;-80
2023/04/08 01:01:05;;;;;;;;;;;;;;;5.92;100.00;100630.84;5056328;28;19913;-81
2023/04/08 01:03:33;;;;;;;;;;;;;;;5.92;100.00;100637.31;5021975;28;20104;-81
2023/04/08 01:06:06;;;;;;;;;;;;;;;5.92;100.00;100623.13;5056362;28;19920;-81
2023/04/08 01:08:32;;;;;;;;;;;;;;;5.90;100.00;100630.47;5037674;28;20062;-80
2023/04/08 01:10:58;;;;;;;;;;;;;;;5.87;100.00;100632.19;5037677;28;19970;-81
2023/04/08 01:13:23;;;;;;;;;;;;;;;5.84;100.00;100630.28;5055383;28;19912;-81
2023/04/08 01:15:48;;;;;;;;;;;;;;;5.84;100.00;100638.00;5056100;28;19948;-80
2023/04/08 01:18:14;;;;;;;;;;;;;;;5.82;100.00;100632.75;5055859;28;19917;-81
2023/04/08 01:20:40;;;;;;;;;;;;;;;5.82;100.00;100639.22;5037581;28;20428;-81
2023/04/08 01:23:05;;;;;;;;;;;;;;;5.83;100.00;100642.84;5021155;28;20366;-81
2023/04/08 01:25:35;;;;;;;;;;;;;;;5.82;100.00;100636.38;5037077;28;19912;-80
2023/04/08 01:28:03;;;;;;;;;;;;;;;5.74;100.00;100635.03;5054884;28;19917;-80
2023/04/08 01:30:29;;;;;;;;;;;;;;;5.67;100.00;100642.94;5054908;28;19913;-81
2023/04/08 01:32:54;;;;;;;;;;;;;;;5.60;100.00;100641.09;5037257;28;20395;-80
2023/04/08 01:35:20;;;;;;;;;;;;;;;5.57;100.00;100644.84;5037272;28;19917;-81
2023/04/08 01:37:45;;;;;;;;;;;;;;;5.50;100.00;100638.63;5055013;28;19916;-80
2023/04/08 01:40:11;;;;;;;;;;;;;;;5.48;100.00;100644.72;5035838;28;19958;-80
2023/04/08 01:42:36;;;;;;;;;;;;;;;5.42;100.00;100646.50;5020342;28;20269;-80
2023/04/08 01:45:01;;;;;;;;;;;;;;;5.41;100.00;100646.94;5033569;28;20043;-81
2023/04/08 01:47:27;;;;;;;;;;;;;;;5.34;100.00;100660.09;5016736;28;20393;-80
2023/04/08 01:49:52;;;;;;;;;;;;;;;5.31;100.00;100675.16;5034664;28;20007;-81
2023/04/08 01:52:17;;;;;;;;;;;;;;;5.32;100.00;100676.75;5034885;28;19913;-81
2023/04/08 01:54:43;;;;;;;;;;;;;;;5.28;100.00;100661.88;5033285;28;20339;-81
2023/04/08 01:57:08;;;;;;;;;;;;;;;5.26;100.00;100670.03;5033271;28;19929;-81
2023/04/08 01:59:34;;;;;;;;;;;;;;;5.22;100.00;100677.84;5016827;28;20351;-81
2023/04/08 02:01:59;;;;;;;;;;;;;;;5.17;100.00;100672.72;5033302;28;20267;-81
2023/04/08 02:04:25;;;;;;;;;;;;;;;5.13;100.00;100682.56;5033536;28;19963;-81
2023/04/08 02:06:50;;;;;;;;;;;;;;;5.13;100.00;100680.53;5034681;28;19944;-81
2023/04/08 02:09:15;;;;;;;;;;;;;;;5.15;100.00;100686.53;5033461;28;20408;-81
2023/04/08 02:11:41;;;;;;;;;;;;;;;5.15;100.00;100694.25;5032882;28;19959;-81
2023/04/08 02:14:06;;;;;;;;;;;;;;;5.12;100.00;100687.41;5033203;28;19939;-81
2023/04/08 02:16:31;;;;;;;;;;;;;;;5.09;100.00;100690.34;5034294;28;19914;-82
2023/04/08 02:19:01;;;;;;;;;;;;;;;5.04;100.00;100699.41;5034249;28;20385;-81
2023/04/08 02:21:31;;;;;;;;;;;;;;;5.03;100.00;100697.78;5016397;28;19971;-81
2023/04/08 02:23:57;;;;;;;;;;;;;;;5.03;100.00;100700.63;5016268;28;19925;-81
2023/04/08 02:26:22;;;;;;;;;;;;;;;5.03;100.00;100698.59;5034324;28;19913;-82
2023/04/08 02:28:47;;;;;;;;;;;;;;;5.02;100.00;100702.66;5032885;28;20024;-80
2023/04/08 02:31:13;;;;;;;;;;;;;;;4.99;100.00;100703.56;5033161;28;20020;-80
2023/04/08 02:33:38;;;;;;;;;;;;;;;4.93;100.00;100700.47;5032670;28;19913;-79
2023/04/08 02:36:03;;;;;;;;;;;;;;;4.88;100.00;100703.84;5033979;28;19913;-81
2023/04/08 02:38:29;;;;;;;;;;;;;;;4.87;100.00;100704.28;5032407;28;20363;-81
2023/04/08 02:40:54;;;;;;;;;;;;;;;4.88;100.00;100715.16;5032448;28;20335;-80
2023/04/08 02:43:20;;;;;;;;;;;;;;;4.87;100.00;100716.41;5035481;28;20060;-81
2023/04/08 02:45:45;;;;;;;;;;;;;;;4.89;100.00;100710.31;5019331;28;20363;-79
2023/04/08 02:48:11;;;;;;;;;;;;;;;4.91;100.00;100708.59;5053807;28;19917;-81
2023/04/08 02:50:36;;;;;;;;;;;;;;;4.93;100.00;100725.16;5035851;28;20017;-80
2023/04/08 02:53:01;;;;;;;;;;;;;;;4.93;100.00;100725.97;5053630;28;19913;-81
2023/04/08 02:55:27;;;;;;;;;;;;;;;4.96;100.00;100729.16;5053236;28;19982;-82
2023/04/08 02:57:52;;;;;;;;;;;;;;;4.96;100.00;100729.91;5053295;28;19913;-82
2023/04/08 03:00:17;;;;;;;;;;;;;;;4.98;100.00;100733.13;5053429;28;19913;-81
2023/04/08 03:02:42;;;;;;;;;;;;;;;4.98;100.00;100737.97;5053518;28;19936;-81
2023/04/08 03:05:08;;;;;;;;;;;;;;;4.98;100.00;100744.44;5053534;28;19913;-81
2023/04/08 03:07:33;;;;;;;;;;;;;;;5.00;100.00;100738.34;5035355;28;20460;-82
2023/04/08 03:09:59;;;;;;;;;;;;;;;4.95;100.00;100739.69;5053243;28;19999;-81
2023/04/08 03:12:26;;;;;;;;;;;;;;;4.92;100.00;100740.53;5018986;28;20273;-80
2023/04/08 03:14:51;;;;;;;;;;;;;;;4.87;100.00;100733.38;5035766;28;20329;-81
2023/04/08 03:17:16;;;;;;;;;;;;;;;4.83;100.00;100737.53;5053199;28;19917;-82
2023/04/08 03:19:42;;;;;;;;;;;;;;;4.83;100.00;100748.88;5054021;28;20012;-81
2023/04/08 03:22:08;;;;;;;;;;;;;;;4.82;100.00;100744.44;5046201;28;19935;-79
2023/04/08 03:24:34;;;;;;;;;;;;;;;4.81;100.00;100737.19;5051253;28;19976;-80
2023/04/08 03:26:59;;;;;;;;;;;;;;;4.83;100.00;100743.22;5044432;28;20408;-80
2023/04/08 03:29:25;;;;;;;;;;;;;;;4.87;100.00;100743.91;5053778;28;19917;-81
2023/04/08 03:31:50;;;;;;;;;;;;;;;4.85;100.00;100743.56;5053660;28;19913;-82
2023/04/08 03:34:15;;;;;;;;;;;;;;;4.87;100.00;100749.56;5035600;28;19920;-81
2023/04/08 03:36:40;;;;;;;;;;;;;;;4.88;100.00;100754.00;5035630;28;19920;-81
2023/04/08 03:39:06;;;;;;;;;;;;;;;4.82;100.00;100753.72;5053376;28;19974;-81
2023/04/08 03:41:31;;;;;;;;;;;;;;;4.78;100.00;100749.41;5053047;28;19987;-80
2023/04/08 03:43:56;;;;;;;;;;;;;;;4.77;100.00;100757.09;5052994;28;20301;-81
2023/04/08 03:46:22;;;;;;;;;;;;;;;4.76;100.00;100761.16;5053304;28;19936;-81
2023/04/08 03:48:47;;;;;;;;;;;;;;;4.77;100.00;100759.94;5053067;28;20393;-82
2023/04/08 03:51:12;;;;;;;;;;;;;;;4.78;100.00;100755.06;5053090;28;19966;-81
2023/04/08 03:53:38;;;;;;;;;;;;;;;4.81;100.00;100759.81;5052948;28;20015;-82
2023/04/08 03:56:03;;;;;;;;;;;;;;;4.79;100.00;100765.16;5018868;28;19956;-80
2023/04/08 03:58:29;;;;;;;;;;;;;;;4.77;100.00;100767.63;5053096;28;20003;-81
2023/04/08 04:00:54;;;;;;;;;;;;;;;4.76;100.00;100761.16;5053261;28;19913;-82
2023/04/08 04:03:20;;;;;;;;;;;;;;;4.75;100.00;100770.91;5053880;28;19913;-80
2023/04/08 04:05:45;;;;;;;;;;;;;;;4.78;100.00;100774.88;5039016;28;19913;-80
2023/04/08 04:08:10;;;;;;;;;;;;;;;4.78;100.00;100772.03;5038477;28;19921;-80
2023/04/08 04:10:36;;;;;;;;;;;;;;;4.77;100.00;100787.44;5038825;28;19919;-80
2023/04/08 04:13:01;;;;;;;;;;;;;;;4.77;100.00;100774.06;5056738;28;20000;-80
2023/04/08 04:15:27;;;;;;;;;;;;;;;4.78;100.00;100786.19;5056256;28;20370;-82
2023/04/08 04:17:52;;;;;;;;;;;;;;;4.79;100.00;100790.63;5038855;28;19913;-80
2023/04/08 04:20:17;;;;;;;;;;;;;;;4.80;100.00;100793.03;5056257;28;20277;-81
2023/04/08 04:22:43;;;;;;;;;;;;;;;4.82;100.00;100803.91;5056048;28;19913;-81
2023/04/08 04:25:08;;;;;;;;;;;;;;;4.78;100.00;100809.66;5056111;28;20004;-81
2023/04/08 04:27:35;;;;;;;;;;;;;;;4.75;100.00;100812.56;5056339;28;20008;-81
2023/04/08 04:30:00;;;;;;;;;;;;;;;4.72;100.00;100819.91;5056158;28;19913;-82
2023/04/08 04:32:26;;;;;;;;;;;;;;;4.70;100.00;100825.22;5056208;28;19919;-80
2023/04/08 04:34:51;;;;;;;;;;;;;;;4.70;100.00;100827.25;5055832;28;19920;-80
2023/04/08 04:37:17;;;;;;;;;;;;;;;4.72;100.00;100824.75;5055956;28;19924;-81
2023/04/08 04:39:42;;;;;;;;;;;;;;;4.75;100.00;100826.72;5038246;28;19920;-82
2023/04/08 04:42:07;;;;;;;;;;;;;;;4.79;100.00;100827.44;5037929;28;20305;-80
2023/04/08 04:44:33;;;;;;;;;;;;;;;4.80;100.00;100834.69;5034526;28;20002;-82
2023/04/08 04:46:58;;;;;;;;;;;;;;;4.78;100.00;100837.97;5034886;28;19913;-80
2023/04/08 04:49:24;;;;;;;;;;;;;;;4.80;100.00;100841.16;5034890;28;19917;-81
2023/04/08 04:51:49;;;;;;;;;;;;;;;4.81;100.00;100842.72;5034199;28;20244;-81
2023/04/08 04:54:14;;;;;;;;;;;;;;;4.81;100.00;100845.56;5035428;28;19921;-83
2023/04/08 04:56:40;;;;;;;;;;;;;;;4.81;100.00;100845.56;5036421;28;20274;-81
2023/04/08 04:59:05;;;;;;;;;;;;;;;4.80;100.00;100848.84;5035694;28;19913;-82
2023/04/08 05:01:31;;;;;;;;;;;;;;;4.79;100.00;100844.41;5036226;28;19948;-80
2023/04/08 05:03:56;;;;;;;;;;;;;;;4.78;100.00;100845.66;5034927;28;20334;-80
2023/04/08 05:06:25;;;;;;;;;;;;;;;4.78;100.00;100854.16;5039765;28;20003;-82
2023/04/08 05:08:50;;;;;;;;;;;;;;;4.77;100.00;100850.50;5045219;28;19928;-81
2023/04/08 05:11:17;;;;;;;;;;;;;;;4.71;100.00;100860.00;5029767;28;19913;-80
2023/04/08 05:13:42;;;;;;;;;;;;;;;4.72;100.00;100870.84;5042931;28;19920;-82
2023/04/08 05:16:07;;;;;;;;;;;;;;;4.68;100.00;100866.50;5039539;28;19913;-81
2023/04/08 05:18:33;;;;;;;;;;;;;;;4.66;100.00;100872.59;5038642;28;19920;-81
2023/04/08 05:20:58;;;;;;;;;;;;;;;4.64;100.00;100872.25;5036676;28;20339;-81
2023/04/08 05:23:23;;;;;;;;;;;;;;;4.58;100.00;100876.84;5034388;28;19987;-81
2023/04/08 05:25:49;;;;;;;;;;;;;;;4.58;100.00;100876.03;5017770;28;20009;-82
2023/04/08 05:28:14;;;;;;;;;;;;;;;4.56;100.00;100893.47;5033924;28;20325;-81
2023/04/08 05:30:39;;;;;;;;;;;;;;;4.53;100.00;100891.50;5035113;28;19943;-82
2023/04/08 05:33:05;;;;;;;;;;;;;;;4.55;100.00;100891.88;5035511;28;20008;-81
2023/04/08 05:35:30;;;;;;;;;;;;;;;4.56;100.00;100898.31;5035093;28;19913;-81
2023/04/08 05:37:55;;;;;;;;;;;;;;;4.56;100.00;100901.97;5035389;28;19913;-82
2023/04/08 05:40:21;;;;;;;;;;;;;;;4.60;100.00;100904.69;5035637;28;19915;-81
2023/04/08 05:42:46;;;;;;;;;;;;;;;4.65;100.00;100899.34;5035138;28;19969;-82
2023/04/08 05:45:11;;;;;;;;;;;;;;;4.72;100.00;100892.69;5053225;28;19921;-81
2023/04/08 05:47:36;;;;;;;;;;;;;;;4.73;100.00;100891.47;5055169;28;20045;-82
2023/04/08 05:50:02;;;;;;;;;;;;;;;4.77;100.00;100898.63;5055197;28;20384;-81
2023/04/08 05:52:27;;;;;;;;;;;;;;;4.81;100.00;100904.22;5054902;28;19936;-82
2023/04/08 05:54:52;;;;;;;;;;;;;;;4.80;100.00;100903.44;5054976;28;19917;-81
2023/04/08 05:57:18;;;;;;;;;;;;;;;4.78;100.00;100905.09;5054802;28;19913;-82
2023/04/08 05:59:43;;;;;;;;;;;;;;;4.83;100.00;100904.59;5037046;28;19991;-82
2023/04/08 06:02:08;;;;;;;;;;;;;;;4.88;100.00;100904.88;5037138;28;20366;-81
2023/04/08 06:04:34;;;;;;;;;;;;;;;4.96;100.00;100908.31;5054659;28;19974;-82
2023/04/08 06:07:01;;;;;;;;;;;;;;;5.01;100.00;100913.47;5055177;28;19977;-81
2023/04/08 06:09:26;;;;;;;;;;;;;;;5.03;100.00;100916.66;5054972;28;20416;-82
2023/04/08 06:11:52;;;;;;;;;;;;;;;5.09;100.00;100916.94;5055443;28;19912;-81
2023/04/08 06:14:19;;;;;;;;;;;;;;;5.08;100.00;100921.00;5047512;28;19996;-82
2023/04/08 06:16:44;;;;;;;;;;;;;;;5.10;100.00;100918.53;5071593;28;19913;-80
2023/04/08 06:19:10;;;;;;;;;;;;;;;5.13;100.00;100926.16;5062665;28;20329;-81
2023/04/08 06:21:35;;;;;;;;;;;;;;;5.16;100.00;100928.09;5054445;28;19967;-81
2023/04/08 06:24:00;;;;;;;;;;;;;;;5.22;100.00;100929.16;5054721;28;19950;-82
2023/04/08 06:26:26;;;;;;;;;;;;;;;5.25;100.00;100936.81;5053936;28;20353;-82
2023/04/08 06:28:52;;;;;;;;;;;;;;;5.31;100.00;100949.19;5054251;28;19927;-83
2023/04/08 06:31:17;;;;;;;;;;;;;;;5.40;100.00;100940.09;5036111;28;19917;-81
2023/04/08 06:33:42;;;;;;;;;;;;;;;5.51;100.00;100952.75;5035847;28;20236;-82
2023/04/08 06:36:08;;;;;;;;;;;;;;;5.60;100.00;100947.25;5035882;28;19970;-80
2023/04/08 06:38:33;;;;;;;;;;;;;;;5.63;100.00;100954.09;5054466;28;20362;-82
2023/04/08 06:41:04;;;;;;;;;;;;;;;5.66;100.00;100956.81;5054257;28;19917;-81
2023/04/08 06:43:29;;;;;;;;;;;;;;;5.91;100.00;100963.91;5032408;28;19928;-82
2023/04/08 06:45:55;;;;;;;;;;;;;;;6.11;100.00;100958.91;5033979;28;19980;-82
2023/04/08 06:48:22;;;;;;;;;;;;;;;6.21;100.00;100972.00;5033818;28;20015;-81
2023/04/08 06:50:47;;;;;;;;;;;;;;;6.36;100.00;100972.44;5033583;28;19924;-81
2023/04/08 06:53:13;;;;;;;;;;;;;;;6.58;100.00;100962.88;5033016;28;19913;-83
2023/04/08 06:55:38;;;;;;;;;;;;;;;6.78;100.00;100970.47;5034408;28;20278;-83
2023/04/08 06:58:03;;;;;;;;;;;;;;;6.74;100.00;100981.91;5034179;28;19913;-82
2023/04/08 07:00:29;;;;;;;;;;;;;;;6.78;100.00;100976.13;5034288;28;20012;-83
2023/04/08 07:02:54;;;;;;;;;;;;;;;6.87;100.00;100976.28;5034223;28;19914;-82
2023/04/08 07:05:20;;;;;;;;;;;;;;;6.94;100.00;100982.53;5032779;28;20282;-83
2023/04/08 07:07:45;;;;;;;;;;;;;;;7.05;100.00;100985.03;5032436;28;19923;-82
2023/04/08 07:10:11;;;;;;;;;;;;;;;7.10;100.00;100982.44;5033720;28;19913;-82
2023/04/08 07:12:37;;;;;;;;;;;;;;;7.07;100.00;100988.25;5033422;28;19913;-83
2023/04/08 07:15:02;;;;;;;;;;;;;;;7.05;100.00;100987.88;5033472;28;20321;-82
2023/04/08 07:17:28;;;;;;;;;;;;;;;7.09;100.00;100991.41;5033487;28;19952;-82
2023/04/08 07:19:53;;;;;;;;;;;;;;;7.19;100.00;100998.81;5033486;28;20436;-82
2023/04/08 07:22:18;;;;;;;;;;;;;;;7.33;100.00;101006.09;5032111;28;20016;-83
2023/04/08 07:24:48;;;;;;;;;;;;;;;7.27;100.00;100997.38;5033763;28;19925;-82
2023/04/08 07:27:13;;;;;;;;;;;;;;;7.21;100.00;101010.53;5033473;28;20451;-82
2023/04/08 07:29:39;;;;;;;;;;;;;;;7.32;100.00;100999.66;5033401;28;19918;-82
2023/04/08 07:32:04;;;;;;;;;;;;;;;7.54;100.00;101005.44;5033947;28;20051;-82
2023/04/08 07:34:29;;;;;;;;;;;;;;;7.75;100.00;101001.13;5032729;28;20263;-82
2023/04/08 07:36:54;;;;;;;;;;;;;;;7.95;100.00;101008.16;5033862;28;19960;-83
2023/04/08 07:39:20;;;;;;;;;;;;;;;8.24;100.00;101022.25;5038265;28;19921;-83
2023/04/08 07:41:45;;;;;;;;;;;;;;;8.37;100.00;101023.00;5037555;28;20286;-83
2023/04/08 07:44:10;;;;;;;;;;;;;;;8.31;100.00;101029.75;5036242;28;20055;-81
2023/04/08 07:46:37;;;;;;;;;;;;;;;8.30;100.00;101031.78;5035923;28;20286;-83
2023/04/08 07:49:02;;;;;;;;;;;;;;;8.37;100.00;101034.38;5036175;28;20374;-82
2023/04/08 07:51:28;;;;;;;;;;;;;;;8.60;100.00;101038.09;5036025;28;19920;-82
2023/04/08 07:53:54;;;;;;;;;;;;;;;8.72;100.00;101048.63;5037157;28;19920;-82
2023/04/08 07:56:20;;;;;;;;;;;;;;;8.71;100.00;101044.97;5037210;28;19913;-83
2023/04/08 07:58:45;;;;;;;;;;;;;;;8.75;100.00;101047.72;5037735;28;19913;-82
2023/04/08 08:01:15;;;;;;;;;;;;;;;8.77;100.00;101056.59;5037997;28;19967;-81
2023/04/08 08:03:40;;;;;;;;;;;;;;;8.53;100.00;101046.88;5037176;28;19912;-82
2023/04/08 08:06:06;;;;;;;;;;;;;;;8.32;100.00;101046.34;5037390;28;19936;-83
2023/04/08 08:08:32;;;;;;;;;;;;;;;8.18;100.00;101046.84;5037608;28;19917;-85
2023/04/08 08:10:57;;;;;;;;;;;;;;;8.23;100.00;101034.88;5037254;28;19923;-84
2023/04/08 08:13:22;;;;;;;;;;;;;;;8.42;100.00;101040.75;5037020;28;20341;-83
2023/04/08 08:15:51;;;;;;;;;;;;;;;8.72;100.00;101052.28;5037564;28;19936;-82
2023/04/08 08:18:16;;;;;;;;;;;;;;;8.93;100.00;101047.84;5037407;28;19955;-83
2023/04/08 08:20:41;;;;;;;;;;;;;;;9.02;100.00;101049.97;5036928;28;19913;-82
2023/04/08 08:23:07;;;;;;;;;;;;;;;8.98;100.00;101055.00;5037241;28;19917;-82
2023/04/08 08:25:32;;;;;;;;;;;;;;;8.99;100.00;101048.84;5035435;28;19936;-83
2023/04/08 08:27:57;;;;;;;;;;;;;;;9.12;100.00;101054.47;5018623;28;20028;-83
2023/04/08 08:30:23;;;;;;;;;;;;;;;9.24;100.00;101050.78;5036686;28;19917;-84
2023/04/08 08:32:50;;;;;;;;;;;;;;;9.36;100.00;101057.63;5035213;28;20362;-82
2023/04/08 08:35:16;;;;;;;;;;;;;;;9.44;100.00;101067.53;5035217;28;20004;-82
2023/04/08 08:37:41;;;;;;;;;;;;;;;9.35;99.06;101065.41;5036913;28;20385;-83
2023/04/08 08:40:07;;;;;;;;;;;;;;;9.38;99.83;101067.34;5036361;28;19967;-82
2023/04/08 08:42:32;;;;;;;;;;;;;;;9.46;100.00;101070.69;5035639;28;19999;-78
2023/04/08 08:44:59;;;;;;;;;;;;;;;9.53;100.00;101062.66;5051515;28;19927;-79
2023/04/08 08:47:24;;;;;;;;;;;;;;;9.59;100.00;101069.34;5037911;28;20281;-79
2023/04/08 08:49:50;;;;;;;;;;;;;;;9.68;100.00;101071.47;5054982;28;19924;-78
2023/04/08 08:52:16;;;;;;;;;;;;;;;9.79;99.85;101068.97;5037843;28;19913;-78
2023/04/08 08:54:42;;;;;;;;;;;;;;;9.86;100.00;101076.47;5055437;28;19912;-78
2023/04/08 08:57:19;;;;;;;;;;;;;;;9.95;100.00;101074.47;5055590;28;20015;-79
2023/04/08 08:59:46;;;;;;;;;;;;;;;10.00;98.87;101081.59;5039451;28;19960;-79
2023/04/08 09:02:28;;;;;;;;;;;;;;;9.87;94.84;101092.34;5057664;28;19912;-77
2023/04/08 09:04:57;;;;;;;;;;;;;;;9.81;96.04;101097.88;5056727;28;19913;-77
2023/04/08 09:07:23;;;;;;;;;;;;;;;9.79;95.10;101097.53;5037834;28;19912;-77
2023/04/08 09:09:49;;;;;;;;;;;;;;;9.73;95.08;101099.41;5024474;28;20365;-79
2023/04/08 09:12:14;;;;;;;;;;;;;;;9.80;95.91;101098.31;5059075;28;19913;-80
2023/04/08 09:14:40;;;;;;;;;;;;;;;9.89;96.11;101107.72;5058897;28;20066;-78
2023/04/08 09:17:05;;;;;;;;;;;;;;;9.95;95.13;101105.88;5058015;28;19913;-78
2023/04/08 09:19:30;;;;;;;;;;;;;;;9.97;95.09;101108.25;5056679;28;20296;-78
2023/04/08 09:22:06;;;;;;;;;;;;;;;10.17;95.49;101113.56;5056488;28;20349;-77
2023/04/08 09:24:31;;;;;;;;;;;;;;;10.42;94.11;101130.47;5037872;28;19913;-78
2023/04/08 09:26:57;;;;;;;;;;;;;;;10.42;88.67;101130.47;5055587;28;20377;-77
2023/04/08 09:29:22;;;;;;;;;;;;;;;10.42;89.09;101124.75;5055219;28;19924;-78
2023/04/08 09:31:47;;;;;;;;;;;;;;;10.52;89.87;101123.53;5055167;28;19917;-77
2023/04/08 09:34:14;;;;;;;;;;;;;;;10.63;89.75;101125.94;5037319;28;19913;-78
2023/04/08 09:36:39;;;;;;;;;;;;;;;10.75;87.18;101140.06;5054845;28;20362;-78
2023/04/08 09:39:05;;;;;;;;;;;;;;;10.86;85.17;101131.84;5054827;28;19919;-77
2023/04/08 09:41:32;;;;;;;;;;;;;;;10.80;82.78;101135.78;5054583;28;19999;-78
2023/04/08 09:43:58;;;;;;;;;;;;;;;10.84;83.98;101130.72;5054466;28;20008;-78
2023/04/08 09:46:25;;;;;;;;;;;;;;;11.02;82.55;101138.53;5036773;28;19960;-79
2023/04/08 09:49:14;;;;;;;;;;;;;;;11.09;80.45;101138.19;5020304;28;20361;-78
2023/04/08 09:51:59;;;;;;;;;;;;;;;11.07;80.28;101143.63;5048796;28;19958;-79
2023/04/08 09:54:29;;;;;;;;;;;;;;;10.92;83.10;101137.72;5036946;28;19922;-78
2023/04/08 09:56:58;;;;;;;;;;;;;;;11.01;84.43;101134.06;5036982;28;19935;-78
2023/04/08 09:59:26;;;;;;;;;;;;;;;11.15;81.54;101139.19;5054430;28;19958;-78
2023/04/08 10:01:51;;;;;;;;;;;;;;;11.26;82.33;101140.31;5053917;28;19962;-78
2023/04/08 10:04:18;;;;;;;;;;;;;;;11.27;79.99;101143.97;5037486;28;20289;-78
2023/04/08 10:06:43;;;;;;;;;;;;;;;11.13;78.33;101153.16;5036562;28;19913;-78
2023/04/08 10:09:09;;;;;;;;;;;;;;;10.96;78.11;101150.59;5036222;28;19917;-77
2023/04/08 10:11:35;;;;;;;;;;;;;;;10.93;79.57;101151.53;5054174;28;19913;-77
2023/04/08 10:14:00;;;;;;;;;;;;;;;10.92;80.06;101158.53;5054141;28;19913;-77
2023/04/08 10:16:26;;;;;;;;;;;;;;;10.89;79.65;101150.91;5054348;28;19919;-79
2023/04/08 10:18:54;;;;;;;;;;;;;;;10.84;80.99;101153.59;5053900;28;19920;-77
2023/04/08 10:21:32;;;;;;;;;;;;;;;10.83;81.83;101152.00;5053853;28;19963;-78
2023/04/08 10:23:58;;;;;;;;;;;;;;;10.84;82.85;101147.88;5035934;28;20001;-80
2023/04/08 10:26:32;;;;;;;;;;;;;;;10.84;82.78;101154.38;5035939;28;19992;-78
2023/04/08 10:29:16;;;;;;;;;;;;;;;10.74;82.17;101161.34;5053969;28;20416;-76
2023/04/08 10:31:41;;;;;;;;;;;;;;;10.59;82.67;101151.78;5054194;28;19913;-79
2023/04/08 10:34:19;;;;;;;;;;;;;;;10.54;82.61;101155.25;5053971;28;19936;-78
2023/04/08 10:36:44;;;;;;;;;;;;;;;10.49;83.12;101161.59;5036307;28;19920;-78
2023/04/08 10:39:10;;;;;;;;;;;;;;;10.52;83.77;101152.91;5035891;28;19913;-79
2023/04/08 10:41:40;;;;;;;;;;;;;;;10.57;83.31;101153.53;5035972;28;20006;-79
2023/04/08 10:44:14;;;;;;;;;;;;;;;10.73;84.14;101153.28;5053402;28;20240;-77
2023/04/08 10:46:40;;;;;;;;;;;;;;;10.99;84.02;101141.06;5053626;28;20281;-78
2023/04/08 10:49:05;;;;;;;;;;;;;;;11.28;84.40;101139.81;5053692;28;19917;-78
2023/04/08 10:51:31;;;;;;;;;;;;;;;11.59;83.72;101142.50;5053886;28;19913;-77
2023/04/08 10:54:04;;;;;;;;;;;;;;;11.82;79.91;101161.84;5035746;28;19963;-80
2023/04/08 10:56:29;;;;;;;;;;;;;;;11.80;77.14;101159.47;5053279;28;19912;-78
2023/04/08 10:58:58;;;;;;;;;;;;;;;11.75;78.11;101153.59;5019172;28;20306;-77
2023/04/08 11:01:24;;;;;;;;;;;;;;;11.69;80.02;101149.78;5053700;28;20286;-77
2023/04/08 11:03:49;;;;;;;;;;;;;;;11.73;79.68;101161.88;5019347;28;20354;-79
2023/04/08 11:06:15;;;;;;;;;;;;;;;11.82;79.67;101148.31;5053757;28;19917;-78
2023/04/08 11:08:40;;;;;;;;;;;;;;;11.77;80.90;101156.75;5053356;28;19917;-78
2023/04/08 11:11:09;;;;;;;;;;;;;;;11.72;81.89;101152.47;5053093;28;19982;-77
2023/04/08 11:13:35;;;;;;;;;;;;;;;11.84;83.19;101151.50;5024460;28;19913;-77
2023/04/08 11:16:01;;;;;;;;;;;;;;;12.06;84.08;101150.50;5059979;28;19978;-76
2023/04/08 11:18:27;;;;;;;;;;;;;;;12.27;81.78;101149.44;5059976;28;20425;-76
2023/04/08 11:20:52;;;;;;;;;;;;;;;12.41;80.31;101147.97;5060012;28;19913;-78
2023/04/08 11:23:18;;;;;;;;;;;;;;;12.53;79.83;101159.22;5041826;28;20271;-77
2023/04/08 11:25:43;;;;;;;;;;;;;;;12.75;77.87;101155.28;5059403;28;19912;-79
2023/04/08 11:28:09;;;;;;;;;;;;;;;12.83;76.60;101154.44;5059936;28;20261;-77
2023/04/08 11:30:35;;;;;;;;;;;;;;;12.94;76.25;101153.88;5041731;28;19913;-78
2023/04/08 11:33:00;;;;;;;;;;;;;;;13.04;76.11;101156.22;5041792;28;19920;-78
2023/04/08 11:35:29;;;;;;;;;;;;;;;13.05;73.57;101162.72;5059987;28;19913;-78
2023/04/08 11:37:55;;;;;;;;;;;;;;;13.02;71.50;101161.63;5059555;28;19913;-78
2023/04/08 11:40:23;;;;;;;;;;;;;;;12.91;72.34;101149.91;5048295;28;19913;-78
2023/04/08 11:42:49;;;;;;;;;;;;;;;12.82;72.74;101152.03;5060382;28;19917;-78
2023/04/08 11:45:15;;;;;;;;;;;;;;;12.77;74.81;101149.84;5022372;28;19928;-79
2023/04/08 11:47:41;;;;;;;;;;;;;;;12.76;75.76;101151.91;5040265;28;19913;-78
2023/04/08 11:50:06;;;;;;;;;;;;;;;12.88;78.28;101144.38;5038739;28;19948;-79
2023/04/08 11:52:52;;;;;;;;;;;;;;;13.16;79.18;101136.34;5040696;28;20001;-78
2023/04/08 11:55:21;;;;;;;;;;;;;;;13.49;78.16;101137.00;5040960;28;20020;-79
2023/04/08 11:57:47;;;;;;;;;;;;;;;13.75;78.22;101135.16;5024550;28;20294;-80
2023/04/08 12:00:12;;;;;;;;;;;;;;;13.92;74.23;101144.88;5042011;28;19913;-79
2023/04/08 12:02:37;;;;;;;;;;;;;;;14.01;71.69;101141.09;5040180;28;19921;-78
2023/04/08 12:05:03;;;;;;;;;;;;;;;13.94;71.32;101153.78;5039970;28;19913;-78
2023/04/08 12:07:28;;;;;;;;;;;;;;;13.84;66.04;101163.00;5039534;28;20325;-79
2023/04/08 12:09:53;;;;;;;;;;;;;;;13.61;64.42;101161.00;5039791;28;19917;-77
2023/04/08 12:12:19;;;;;;;;;;;;;;;13.42;66.56;101149.66;5039785;28;19917;-77
2023/04/08 12:14:44;;;;;;;;;;;;;;;13.39;64.83;101158.47;5039550;28;19913;-77
2023/04/08 12:17:10;;;;;;;;;;;;;;;13.24;62.62;101164.19;5039526;28;19913;-78
2023/04/08 12:19:35;;;;;;;;;;;;;;;13.21;66.61;101158.63;5039415;28;20309;-78
2023/04/08 12:22:01;;;;;;;;;;;;;;;13.28;67.83;101143.91;5039503;28;19913;-78
2023/04/08 12:24:26;;;;;;;;;;;;;;;13.42;67.20;101148.88;5036773;28;19921;-78
2023/04/08 12:26:51;;;;;;;;;;;;;;;13.43;65.49;101154.13;5036152;28;20000;-79
2023/04/08 12:29:16;;;;;;;;;;;;;;;13.47;63.95;101143.25;5035892;28;19924;-78
2023/04/08 12:31:42;;;;;;;;;;;;;;;13.51;63.49;101141.00;5034946;28;19963;-76